Aérodrome :
LOGIN :

S'inscrire | Disclaimer

   EN    FR    IT 

 










Légende :    VFR   VFR Marginal   IFR   IFR Intensif   IFR Très Intensif
Visi : 
Plafond : 
>= 8 km
>= 3000ft
5 à 8 km
1000 à 3000 ft
1500m à 5 km
500 à 1000 ft
800 à 1500m
200 à 500 ft
< 800m
< 200 ft
Symboles :   Orages  Brouillard  Fortes neiges  Fortes précipitations  Vent > 20 kt
SIGMETs :   Divers  Orages  Givrage  Turbulence  Onde Orograph.  Cendres Volcan.







- Altitude de l'aérodrome : 364 ft
- Code IATA : FRA


EDDF - Frankfurt Int.

DERNIER METAR :
  • 171320Z VRB02KT CAVOK 13/01 Q1023 NOSIG

METARs EXPIRÉS :
  • 171250Z 21004KT 160V240 CAVOK 12/02 Q1024 NOSIG
  • 171220Z 21005KT CAVOK 11/01 Q1024 NOSIG
  • 171150Z 23004KT 190V270 CAVOK 10/01 Q1024 NOSIG
  • 171120Z 21003KT 130V260 CAVOK 09/01 Q1025 NOSIG
  • 171050Z VRB01KT CAVOK 07/01 Q1025 NOSIG

TAF TAF EDDF
Valide du 17 à 12h jusqu'au 18 à 18h UTC


171100Z 1712/1818 22004KT CAVOK
PROB30
TEMPO 1803/1808 1500 BCFG
Pas de NOTAMs connus pour ce terrain.



MET'MAP, la Météo Aéronautique d'un coup d'oeil ! - Copyright ORBIFLY Décembre 2007 - Disclaimer

ORBIFLY MET'MAP TEAM :

Programmation & Développement : Alexandra Zaïnal
Conception & Développement : Baudouin d'Aumeries
Co-Programmation & Développement : Marc-Olivier Méhu
Soutien technique & logistique : Manuel Goepfert

Contact : metmap@orbifly.com




SOURCES & CREDITS :

   NOAA